Time;durP1;ratioP1;P1;durP2;ratioP2;P2;SDS_P1;SDS_P2;PMS_P1;PMS_P2;Temp;Humidity;BMP_temperature;BMP_pressure;BME280_temperature;BME280_humidity;BME280_pressure;Samples;Min_cycle;Max_cycle;Signal;HPM_P1;HPM_P2
2021/01/30 00:00:44;;;;;;;52.95;27.30;;;;;;;-0.17;73.67;98814.88;1623867;86;28649;-81
2021/01/30 00:03:13;;;;;;;43.58;25.32;;;;;;;-0.15;73.56;98816.34;1600427;86;26097;-81
2021/01/30 00:05:42;;;;;;;39.15;22.87;;;;;;;-0.17;73.52;98807.78;1615061;87;26417;-80
2021/01/30 00:08:12;;;;;;;44.50;24.95;;;;;;;-0.18;73.53;98807.95;1626538;86;25900;-80
2021/01/30 00:10:42;;;;;;;44.00;24.10;;;;;;;-0.19;73.59;98806.30;1650916;86;25863;-80
2021/01/30 00:13:10;;;;;;;42.85;24.85;;;;;;;-0.16;73.70;98803.35;1621461;86;28390;-81
2021/01/30 00:15:39;;;;;;;47.80;24.05;;;;;;;-0.13;73.67;98806.98;1645156;86;25851;-81
2021/01/30 00:18:08;;;;;;;48.98;24.52;;;;;;;-0.12;73.69;98803.35;1629123;85;25849;-80
2021/01/30 00:20:37;;;;;;;46.35;23.92;;;;;;;-0.10;73.71;98801.38;1610435;86;26174;-80
2021/01/30 00:23:07;;;;;;;49.13;24.20;;;;;;;-0.10;73.53;98797.44;1673067;84;25806;-80
2021/01/30 00:25:38;;;;;;;47.17;24.50;;;;;;;-0.15;73.49;98807.64;1610496;86;27566;-80
2021/01/30 00:28:09;;;;;;;46.80;24.37;;;;;;;-0.18;73.55;98801.38;1640480;86;26050;-81
2021/01/30 00:30:37;;;;;;;46.58;23.62;;;;;;;-0.22;73.59;98800.06;1620312;85;25924;-80
2021/01/30 00:33:08;;;;;;;42.50;23.87;;;;;;;-0.25;73.69;98797.73;1600960;86;25965;-81
2021/01/30 00:35:40;;;;;;;48.05;24.25;;;;;;;-0.26;73.89;98796.94;1638273;87;25991;-80
2021/01/30 00:38:10;;;;;;;50.83;26.23;;;;;;;-0.21;73.90;98799.06;1625364;86;27554;-81
2021/01/30 00:40:39;;;;;;;66.12;28.23;;;;;;;-0.16;74.05;98799.41;1623507;87;33097;-81
2021/01/30 00:43:08;;;;;;;54.75;27.82;;;;;;;-0.14;73.98;98799.58;1619010;86;26012;-79
2021/01/30 00:45:36;;;;;;;52.00;26.50;;;;;;;-0.11;73.83;98790.54;1687464;83;25891;-80
2021/01/30 00:48:05;;;;;;;48.68;25.15;;;;;;;-0.12;73.90;98791.52;1637292;84;26601;-80
2021/01/30 00:50:33;;;;;;;43.83;25.00;;;;;;;-0.13;73.93;98795.15;1670416;84;27553;-80
2021/01/30 00:53:01;;;;;;;46.42;24.50;;;;;;;-0.16;73.97;98794.14;1672427;84;25942;-80
2021/01/30 00:55:30;;;;;;;47.83;24.95;;;;;;;-0.20;73.95;98790.20;1665278;84;25920;-80
2021/01/30 00:57:59;;;;;;;38.38;23.77;;;;;;;-0.24;74.03;98784.45;1607099;87;25757;-80
2021/01/30 01:00:29;;;;;;;48.58;24.57;;;;;;;-0.21;74.16;98785.42;1623978;87;25771;-80
2021/01/30 01:02:58;;;;;;;44.48;25.35;;;;;;;-0.21;74.12;98788.53;1632803;86;28104;-80
2021/01/30 01:05:28;;;;;;;44.73;25.17;;;;;;;-0.23;74.18;98790.02;1631258;87;26018;-81
2021/01/30 01:07:56;;;;;;;49.03;25.60;;;;;;;-0.20;74.18;98792.34;1653708;84;25820;-81
2021/01/30 01:10:24;;;;;;;43.52;26.07;;;;;;;-0.17;74.26;98788.56;1633254;84;25834;-80
2021/01/30 01:12:52;;;;;;;47.78;27.62;;;;;;;-0.15;74.26;98786.08;1641991;84;26020;-81
2021/01/30 01:15:21;;;;;;;46.13;25.97;;;;;;;-0.13;74.08;98783.30;1630045;84;27552;-80
2021/01/30 01:17:49;;;;;;;46.88;24.10;;;;;;;-0.13;74.13;98778.84;1642568;84;25716;-80
2021/01/30 01:20:21;;;;;;;41.88;25.02;;;;;;;-0.11;74.05;98776.07;1658571;84;25771;-81
2021/01/30 01:22:49;;;;;;;42.55;22.93;;;;;;;-0.11;74.21;98781.33;1641159;84;25961;-79
2021/01/30 01:25:22;;;;;;;45.17;23.52;;;;;;;-0.12;74.11;98785.77;1603586;87;25880;-80
2021/01/30 01:27:51;;;;;;;39.58;20.40;;;;;;;-0.12;74.25;98791.03;1659205;84;27639;-79
2021/01/30 01:30:23;;;;;;;37.48;22.62;;;;;;;-0.15;74.12;98791.86;1661375;84;25865;-80
2021/01/30 01:32:53;;;;;;;39.83;21.87;;;;;;;-0.20;74.17;98792.83;1664659;84;25774;-80
2021/01/30 01:35:27;;;;;;;39.08;21.30;;;;;;;-0.25;74.45;98791.16;1638399;87;26593;-80
2021/01/30 01:37:55;;;;;;;40.43;21.77;;;;;;;-0.25;74.45;98791.16;1643327;85;25772;-79
2021/01/30 01:40:34;;;;;;;49.27;23.02;;;;;;;-0.31;74.20;98791.33;1621565;87;27620;-79
2021/01/30 01:43:13;;;;;;;42.10;24.02;;;;;;;-0.36;74.48;98792.78;1634607;86;25886;-80
2021/01/30 01:45:42;;;;;;;36.98;22.52;;;;;;;-0.34;74.52;98789.53;1652560;86;26011;-82
2021/01/30 01:48:18;;;;;;;40.35;23.87;;;;;;;-0.38;74.54;98785.55;1633665;87;26508;-80
2021/01/30 01:50:51;;;;;;;40.03;24.55;;;;;;;-0.38;74.69;98783.75;1635425;87;26367;-81
2021/01/30 01:53:26;;;;;;;39.88;25.08;;;;;;;-0.30;74.70;98792.16;1644744;86;27350;-81
2021/01/30 01:56:07;;;;;;;41.48;24.00;;;;;;;-0.27;74.78;98791.82;1673726;85;25914;-79
2021/01/30 01:58:39;;;;;;;35.45;22.02;;;;;;;-0.26;74.70;98792.16;1645289;86;25948;-80
2021/01/30 02:01:08;;;;;;;39.48;23.83;;;;;;;-0.24;74.67;98784.45;1615777;87;26723;-79
2021/01/30 02:03:36;;;;;;;39.95;22.90;;;;;;;-0.22;74.59;98781.16;1618415;86;26030;-81
2021/01/30 02:06:04;;;;;;;42.35;22.85;;;;;;;-0.22;74.62;98781.16;1640433;84;27757;-80
2021/01/30 02:08:35;;;;;;;40.35;22.93;;;;;;;-0.23;74.52;98779.50;1666635;84;25951;-80
2021/01/30 02:11:03;;;;;;;42.35;23.42;;;;;;;-0.22;74.58;98775.90;1653888;84;25959;-79
2021/01/30 02:13:36;;;;;;;43.68;23.85;;;;;;;-0.24;74.47;98771.78;1672218;84;26478;-80
2021/01/30 02:16:34;;;;;;;43.68;24.77;;;;;;;-0.28;74.64;98773.89;1634351;86;25938;-80
2021/01/30 02:19:19;;;;;;;42.33;24.30;;;;;;;-0.27;74.76;98783.92;1657002;86;28028;-80
2021/01/30 02:22:25;;;;;;;43.42;26.48;;;;;;;-0.22;74.92;98776.38;1830516;77;26117;-79
2021/01/30 02:25:50;;;;;;;42.50;24.75;;;;;;;-0.27;74.96;98772.09;1727849;78;25391;-81
2021/01/30 02:28:52;;;;;;;41.05;25.00;;;;;;;-0.37;75.05;98763.53;1742059;80;28390;-79
2021/01/30 02:31:46;;;;;;;43.52;25.45;;;;;;;-0.34;75.14;98771.91;1714396;81;25869;-80
2021/01/30 02:34:39;;;;;;;51.10;27.25;;;;;;;-0.33;75.14;98764.86;1804976;79;25656;-79
2021/01/30 02:37:17;;;;;;;50.08;28.45;;;;;;;-0.39;75.25;98769.45;1752781;80;26056;-79
2021/01/30 02:40:11;;;;;;;44.15;25.82;;;;;;;-0.39;75.33;98761.08;1712527;81;27344;-79
2021/01/30 02:42:43;;;;;;;53.15;27.58;;;;;;;-0.46;75.27;98755.30;1749168;81;25959;-80
2021/01/30 02:45:18;;;;;;;50.17;26.87;;;;;;;-0.47;75.53;98753.16;1721320;81;25766;-80
2021/01/30 02:47:56;;;;;;;52.70;28.45;;;;;;;-0.43;75.52;98766.82;1693859;81;25869;-79
2021/01/30 02:50:35;;;;;;;48.13;27.37;;;;;;;-0.49;75.73;98769.59;1718495;81;25876;-80
2021/01/30 02:53:05;;;;;;;56.40;29.77;;;;;;;-0.49;75.73;98769.59;1745948;81;27451;-80
2021/01/30 02:55:37;;;;;;;48.50;27.63;;;;;;;-0.52;75.89;98759.89;1692841;81;25805;-80
2021/01/30 02:58:07;;;;;;;54.93;28.05;;;;;;;-0.45;76.00;98770.11;1721203;81;26400;-80
2021/01/30 03:00:35;;;;;;;49.98;27.85;;;;;;;-0.47;75.97;98772.88;1704497;81;26244;-81
2021/01/30 03:03:03;;;;;;;52.05;28.55;;;;;;;-0.49;76.03;98774.84;1748009;81;25911;-81
2021/01/30 03:05:31;;;;;;;54.90;29.45;;;;;;;-0.47;76.11;98778.65;1705252;81;27748;-80
2021/01/30 03:08:16;;;;;;;52.17;27.45;;;;;;;-0.44;76.19;98766.48;1693675;81;26089;-79
2021/01/30 03:11:17;;;;;;;57.20;29.92;;;;;;;-0.43;76.10;98767.66;1706200;81;25815;-80
2021/01/30 03:14:01;;;;;;;54.95;27.80;;;;;;;-0.34;76.23;98767.17;1795404;79;25727;-79
2021/01/30 03:16:36;;;;;;;55.17;28.77;;;;;;;-0.39;76.15;98766.82;1741754;80;26086;-80
2021/01/30 03:19:15;;;;;;;49.18;28.42;;;;;;;-0.43;76.11;98762.39;1692701;83;27372;-79
2021/01/30 03:21:48;;;;;;;56.98;29.25;;;;;;;-0.43;76.16;98769.45;1732851;81;25774;-79
2021/01/30 03:24:17;;;;;;;51.65;28.67;;;;;;;-0.42;76.05;98760.08;1725401;81;25872;-80
2021/01/30 03:26:46;;;;;;;56.92;28.75;;;;;;;-0.40;76.21;98762.05;1702136;81;26402;-79
2021/01/30 03:29:17;;;;;;;58.40;29.77;;;;;;;-0.40;76.10;98765.16;1708837;81;26181;-80
2021/01/30 03:31:46;;;;;;;50.95;29.48;;;;;;;-0.44;76.12;98763.36;1731866;81;28512;-79
2021/01/30 03:34:15;;;;;;;54.45;30.05;;;;;;;-0.45;76.18;98766.16;1688891;81;26425;-80
2021/01/30 03:36:43;;;;;;;52.93;29.45;;;;;;;-0.47;76.19;98759.73;1698872;83;25754;-79
2021/01/30 03:39:16;;;;;;;53.95;29.35;;;;;;;-0.50;75.99;98750.86;1680420;84;25915;-80
2021/01/30 03:41:45;;;;;;;53.08;29.92;;;;;;;-0.51;76.35;98753.15;1712875;82;26240;-80
2021/01/30 03:44:14;;;;;;;53.45;29.25;;;;;;;-0.50;76.27;98758.75;1681085;82;27650;-80
2021/01/30 03:46:44;;;;;;;56.50;30.52;;;;;;;-0.54;76.26;98761.38;1676404;82;25812;-80
2021/01/30 03:49:12;;;;;;;58.08;30.80;;;;;;;-0.54;76.33;98761.86;1685044;82;26060;-79
2021/01/30 03:51:39;;;;;;;55.95;31.10;;;;;;;-0.52;76.40;98760.72;1681300;82;26199;-79
2021/01/30 03:54:07;;;;;;;54.25;29.50;;;;;;;-0.48;76.37;98757.27;1648986;82;25744;-80
2021/01/30 03:56:34;;;;;;;55.95;30.15;;;;;;;-0.47;76.39;98757.61;1693228;82;28439;-80
2021/01/30 03:59:02;;;;;;;58.50;32.70;;;;;;;-0.48;76.31;98760.73;1680867;82;26067;-80
2021/01/30 04:01:32;;;;;;;62.20;31.57;;;;;;;-0.50;76.28;98758.75;1709224;82;26353;-80
2021/01/30 04:04:00;;;;;;;58.45;29.82;;;;;;;-0.50;76.38;98750.03;1654149;84;26295;-80
2021/01/30 04:06:29;;;;;;;61.83;31.97;;;;;;;-0.51;76.46;98742.63;1682787;82;26085;-80
2021/01/30 04:08:57;;;;;;;59.00;31.87;;;;;;;-0.50;76.50;98748.23;1679718;84;27125;-79
2021/01/30 04:11:29;;;;;;;62.70;31.90;;;;;;;-0.48;76.46;98744.12;1711759;82;26420;-80
2021/01/30 04:13:58;;;;;;;56.95;30.77;;;;;;;-0.49;76.49;98752.49;1644631;84;25781;-80
2021/01/30 04:16:27;;;;;;;55.03;30.43;;;;;;;-0.48;76.56;98745.44;1658470;84;26524;-79
2021/01/30 04:18:55;;;;;;;59.73;30.92;;;;;;;-0.49;76.56;98744.60;1703324;83;25907;-80
2021/01/30 04:21:23;;;;;;;59.48;30.17;;;;;;;-0.49;76.60;98745.92;1674148;84;27684;-80
2021/01/30 04:23:50;;;;;;;64.20;32.25;;;;;;;-0.47;76.58;98740.52;1652947;83;25885;-80
2021/01/30 04:26:19;;;;;;;59.75;30.20;;;;;;;-0.48;76.56;98748.89;1673373;84;26497;-79
2021/01/30 04:28:49;;;;;;;54.73;29.35;;;;;;;-0.50;76.58;98748.23;1683473;84;25875;-80
2021/01/30 04:31:17;;;;;;;60.38;30.57;;;;;;;-0.51;76.55;98745.26;1694906;84;25861;-79
2021/01/30 04:33:48;;;;;;;60.05;30.25;;;;;;;-0.54;76.65;98740.34;1671578;83;27620;-79
2021/01/30 04:36:17;;;;;;;62.23;31.02;;;;;;;-0.52;76.75;98733.11;1648216;83;26132;-80
2021/01/30 04:38:46;;;;;;;65.87;31.40;;;;;;;-0.49;76.78;98724.08;1664481;85;25917;-79
2021/01/30 04:41:26;;;;;;;55.63;31.75;;;;;;;-0.47;76.73;98726.05;1697704;84;25815;-80
2021/01/30 04:44:15;;;;;;;54.58;29.52;;;;;;;-0.40;76.77;98725.71;1832927;77;26655;-80
2021/01/30 04:47:20;;;;;;;62.08;30.72;;;;;;;-0.48;76.71;98719.97;1782052;78;25408;-80
2021/01/30 04:50:00;;;;;;;52.58;28.98;;;;;;;-0.49;76.72;98720.14;1804568;78;27487;-80
2021/01/30 04:52:57;;;;;;;55.88;29.87;;;;;;;-0.54;76.72;98719.30;1798571;78;25375;-79
2021/01/30 04:55:39;;;;;;;60.25;30.92;;;;;;;-0.56;76.75;98726.53;1775114;79;25871;-80
2021/01/30 04:58:18;;;;;;;61.70;31.35;;;;;;;-0.63;76.79;98714.18;1743013;81;25703;-80
2021/01/30 05:00:50;;;;;;;59.18;32.03;;;;;;;-0.57;76.91;98715.67;1720594;82;25726;-80
2021/01/30 05:03:48;;;;;;;61.92;32.33;;;;;;;-0.54;76.88;98709.27;1734085;81;26916;-80
2021/01/30 05:06:47;;;;;;;59.63;32.08;;;;;;;-0.53;76.88;98713.53;1711955;81;26376;-80
2021/01/30 05:09:19;;;;;;;57.95;31.82;;;;;;;-0.56;76.88;98709.93;1752226;81;25696;-80
2021/01/30 05:12:05;;;;;;;64.42;33.53;;;;;;;-0.59;76.96;98712.87;1725942;81;25935;-80
2021/01/30 05:14:38;;;;;;;60.70;31.42;;;;;;;-0.62;76.94;98708.75;1725479;81;25931;-80
2021/01/30 05:17:14;;;;;;;53.65;31.20;;;;;;;-0.62;76.96;98711.38;1724536;81;27729;-80
2021/01/30 05:19:48;;;;;;;61.80;34.10;;;;;;;-0.63;76.93;98715.02;1721256;81;25793;-80
2021/01/30 05:22:17;;;;;;;54.03;29.23;;;;;;;-0.64;76.94;98715.18;1734523;80;25794;-80
2021/01/30 05:24:45;;;;;;;51.53;29.05;;;;;;;-0.70;77.07;98706.11;1743596;81;26109;-80
2021/01/30 05:27:52;;;;;;;54.18;29.05;;;;;;;-0.70;77.07;98706.11;1725332;81;26170;-80
2021/01/30 05:30:25;;;;;;;54.67;30.32;;;;;;;-0.67;77.08;98704.98;1720546;81;27356;-79
2021/01/30 05:33:33;;;;;;;55.75;30.90;;;;;;;-0.67;77.08;98704.98;1734197;81;25882;-80
2021/01/30 05:36:15;;;;;;;59.55;33.13;;;;;;;-0.67;77.14;98703.17;1756114;80;26516;-79
2021/01/30 05:39:08;;;;;;;57.73;32.55;;;;;;;-0.60;77.17;98699.41;1826136;77;26362;-80
2021/01/30 05:42:09;;;;;;;62.90;33.98;;;;;;;-0.65;77.21;98705.15;1807078;78;25853;-79
2021/01/30 05:44:47;;;;;;;71.97;34.75;;;;;;;-0.61;77.34;98699.89;1790772;78;27551;-79
2021/01/30 05:47:19;;;;;;;70.37;36.95;;;;;;;-0.61;77.16;98708.27;1795688;78;25351;-80
2021/01/30 05:49:57;;;;;;;75.85;36.88;;;;;;;-0.62;77.26;98702.18;1786129;78;25784;-80
2021/01/30 05:52:29;;;;;;;69.35;36.83;;;;;;;-0.67;76.99;98703.66;1765808;79;25877;-80
2021/01/30 05:54:59;;;;;;;77.62;37.40;;;;;;;-0.72;77.11;98700.20;1789544;78;25911;-80
2021/01/30 05:57:27;;;;;;;70.12;34.55;;;;;;;-0.71;77.16;98698.41;1793671;78;28409;-80
2021/01/30 05:59:57;;;;;;;68.90;36.55;;;;;;;-0.70;77.15;98701.34;1761560;78;25888;-80
2021/01/30 06:02:29;;;;;;;69.53;35.75;;;;;;;-0.72;77.14;98696.26;1787638;78;25812;-80
2021/01/30 06:04:59;;;;;;;66.47;34.95;;;;;;;-0.73;77.17;98695.11;1765442;78;25850;-80
2021/01/30 06:07:34;;;;;;;61.40;32.70;;;;;;;-0.73;77.24;98695.94;1797297;78;25984;-80
2021/01/30 06:10:30;;;;;;;62.78;34.38;;;;;;;-0.72;77.19;98702.00;1750615;78;27784;-80
2021/01/30 06:13:15;;;;;;;58.58;32.25;;;;;;;-0.73;77.21;98702.52;1742405;80;25783;-80
2021/01/30 06:15:48;;;;;;;57.83;31.27;;;;;;;-0.75;77.18;98698.40;1737761;81;26111;-80
2021/01/30 06:18:37;;;;;;;58.48;32.25;;;;;;;-0.76;77.25;98694.94;1738138;81;25837;-81
2021/01/30 06:21:13;;;;;;;62.23;30.85;;;;;;;-0.75;77.42;98708.91;1710806;81;25877;-80
2021/01/30 06:24:04;;;;;;;58.80;31.00;;;;;;;-0.75;77.42;98708.91;1760235;80;27604;-80
2021/01/30 06:26:47;;;;;;;57.13;30.77;;;;;;;-0.75;77.29;98707.11;1762561;80;25849;-80
2021/01/30 06:29:35;;;;;;;51.77;28.80;;;;;;;-0.75;77.26;98708.91;1736400;80;25838;-80
2021/01/30 06:32:25;;;;;;;55.77;36.17;;;;;;;-0.71;77.30;98708.91;1818639;77;28488;-79
2021/01/30 06:35:11;;;;;;;55.52;31.57;;;;;;;-0.59;76.84;98706.30;1782891;78;25801;-80
2021/01/30 06:37:48;;;;;;;53.83;29.07;;;;;;;-0.65;76.95;98706.47;1768831;78;27347;-79
2021/01/30 06:40:20;;;;;;;57.53;31.55;;;;;;;-0.69;77.12;98701.20;1790371;78;25749;-80
2021/01/30 06:42:53;;;;;;;55.08;30.85;;;;;;;-0.69;77.20;98704.31;1776879;78;25782;-81
2021/01/30 06:45:34;;;;;;;52.83;28.20;;;;;;;-0.71;77.14;98699.23;1791458;78;25916;-80
2021/01/30 06:48:08;;;;;;;51.65;28.50;;;;;;;-0.71;77.14;98699.23;1777407;78;25911;-80
2021/01/30 06:50:43;;;;;;;59.27;30.85;;;;;;;-0.66;77.30;98706.12;1745713;81;32586;-82
2021/01/30 06:53:25;;;;;;;64.30;31.70;;;;;;;-0.65;77.27;98708.27;1738933;81;25833;-81
2021/01/30 06:56:13;;;;;;;59.30;29.10;;;;;;;-0.66;77.29;98706.63;1761370;80;25384;-81
2021/01/30 06:58:45;;;;;;;65.30;32.85;;;;;;;-0.69;77.24;98703.00;1714615;82;25846;-81
2021/01/30 07:01:25;;;;;;;65.50;34.25;;;;;;;-0.75;77.45;98701.03;1750027;81;25405;-80
2021/01/30 07:04:18;;;;;;;67.72;34.03;;;;;;;-0.69;77.33;98713.03;1745012;81;27659;-81
2021/01/30 07:07:23;;;;;;;65.57;33.67;;;;;;;-0.71;77.36;98705.80;1720889;82;25891;-81
2021/01/30 07:10:29;;;;;;;64.20;32.23;;;;;;;-0.67;77.47;98704.98;1738864;81;25886;-81
2021/01/30 07:13:17;;;;;;;64.05;33.20;;;;;;;-0.65;77.47;98697.75;1761238;81;25885;-81
2021/01/30 07:16:00;;;;;;;70.35;35.13;;;;;;;-0.65;77.50;98700.38;1748926;81;26097;-81
2021/01/30 07:18:41;;;;;;;67.17;35.70;;;;;;;-0.61;77.45;98707.78;1814868;77;26007;-81
2021/01/30 07:21:20;;;;;;;71.20;35.08;;;;;;;-0.63;77.47;98704.49;1784444;78;27951;-80
2021/01/30 07:24:09;;;;;;;58.08;31.52;;;;;;;-0.63;77.47;98704.49;1742674;78;28045;-81
2021/01/30 07:27:03;;;;;;;51.70;28.57;;;;;;;-0.60;77.50;98709.44;1766488;80;25432;-80
2021/01/30 07:29:51;;;;;;;50.10;27.62;;;;;;;-0.63;77.43;98701.86;1780512;78;25844;-81
2021/01/30 07:32:38;;;;;;;53.73;29.00;;;;;;;-0.63;77.50;98704.49;1776221;78;25797;-80
2021/01/30 07:35:25;;;;;;;57.83;29.65;;;;;;;-0.62;77.64;98697.44;1760084;80;25780;-83
2021/01/30 07:38:30;;;;;;;55.30;31.60;;;;;;;-0.64;77.68;98708.09;1803892;78;27518;-82
2021/01/30 07:41:02;;;;;;;64.92;34.30;;;;;;;-0.64;77.47;98705.98;1783643;78;26459;-81
2021/01/30 07:43:50;;;;;;;60.85;33.25;;;;;;;-0.61;77.41;98705.16;1777592;78;25778;-82
2021/01/30 07:46:27;;;;;;;66.37;32.28;;;;;;;-0.61;77.41;98705.16;1789169;78;25800;-80
2021/01/30 07:49:07;;;;;;;60.25;33.53;;;;;;;-0.66;77.48;98699.55;1778017;78;25816;-81
2021/01/30 07:52:00;;;;;;;71.87;37.20;;;;;;;-0.62;77.54;98706.13;1795216;78;27692;-80
2021/01/30 07:54:28;;;;;;;74.30;39.83;;;;;;;-0.63;77.50;98704.98;1793848;78;25860;-80
2021/01/30 07:57:33;;;;;;;83.55;41.65;;;;;;;-0.63;77.50;98704.98;1764504;78;25842;-80
2021/01/30 08:00:18;;;;;;;71.28;39.40;;;;;;;-0.56;77.39;98704.67;1789130;78;25845;-80
2021/01/30 08:03:08;;;;;;;70.57;38.30;;;;;;;-0.50;77.50;98713.22;1781911;78;25395;-80
2021/01/30 08:05:47;;;;;;;68.70;37.33;;;;;;;-0.49;77.40;98713.56;1803722;78;28955;-80
2021/01/30 08:08:30;;;;;;;64.92;34.13;;;;;;;-0.55;77.36;98712.87;1791993;78;25920;-80
2021/01/30 08:11:23;;;;;;;320.75;132.12;;;;;;;-0.54;77.54;98709.27;1791288;78;25760;-80
2021/01/30 08:14:15;;;;;;;95.90;49.20;;;;;;;-0.48;77.62;98710.76;1765519;78;25637;-80
2021/01/30 08:17:41;;;;;;;90.95;51.20;;;;;;;-0.43;77.58;98708.48;1766218;78;26160;-80
2021/01/30 08:20:41;;;;;;;87.40;44.10;;;;;;;-0.39;77.42;98704.53;1757020;80;28041;-80
2021/01/30 08:23:48;;;;;;;98.75;49.83;;;;;;;-0.34;77.40;98706.16;1778307;80;25766;-79
2021/01/30 08:26:36;;;;;;;99.28;49.70;;;;;;;-0.34;77.38;98700.09;1782224;79;25813;-81
2021/01/30 08:29:19;;;;;;;113.28;54.55;;;;;;;-0.24;77.39;98701.58;1771006;80;26156;-82
2021/01/30 08:31:54;;;;;;;101.70;51.18;;;;;;;-0.20;77.29;98705.52;1784115;79;25881;-84
2021/01/30 08:34:26;;;;;;;79.20;40.30;;;;;;;-0.16;77.30;98701.56;1778845;80;27514;-84
2021/01/30 08:36:58;;;;;;;77.32;39.65;;;;;;;-0.07;77.27;98709.79;1753877;80;25797;-85
2021/01/30 08:39:39;;;;;;;63.30;34.88;;;;;;;-0.07;77.27;98709.79;1714013;81;26532;-84
2021/01/30 08:42:19;;;;;;;70.20;36.13;;;;;;;-0.04;77.17;98707.30;1695956;81;25950;-83
2021/01/30 08:44:58;;;;;;;67.40;36.00;;;;;;;-0.04;77.00;98709.93;1726881;82;25871;-84
2021/01/30 08:47:43;;;;;;;73.83;36.70;;;;;;;-0.03;77.02;98707.64;1723872;82;27606;-83
2021/01/30 08:50:42;;;;;;;76.80;37.28;;;;;;;0.05;76.86;98710.26;1790465;79;25768;-83
2021/01/30 08:53:20;;;;;;;69.25;35.65;;;;;;;-0.01;76.86;98709.61;1735293;80;25791;-83
2021/01/30 08:56:02;;;;;;;92.02;44.73;;;;;;;0.04;76.85;98706.00;1712809;81;27940;-83
2021/01/30 08:58:40;;;;;;;61.20;35.50;;;;;;;0.07;76.71;98716.17;1762137;80;25609;-81
2021/01/30 09:01:25;;;;;;;61.33;34.55;;;;;;;0.07;76.67;98703.50;1760119;80;25945;-80
2021/01/30 09:03:59;;;;;;;74.27;38.28;;;;;;;0.07;76.67;98703.50;1738930;80;25807;-79
2021/01/30 09:06:51;;;;;;;68.50;38.40;;;;;;;0.11;76.45;98712.22;1742385;80;25921;-79
2021/01/30 09:09:23;;;;;;;68.92;36.03;;;;;;;0.15;76.51;98719.31;1755246;80;27610;-79
2021/01/30 09:12:02;;;;;;;73.35;38.00;;;;;;;0.13;76.40;98723.92;1724953;82;26274;-79
2021/01/30 09:14:33;;;;;;;67.40;38.53;;;;;;;0.17;76.45;98736.55;1767070;80;25750;-80
2021/01/30 09:17:25;;;;;;;64.27;36.25;;;;;;;0.18;76.41;98718.95;1727973;80;25742;-79
2021/01/30 09:20:13;;;;;;;58.73;32.25;;;;;;;0.27;76.49;98729.81;1765856;80;25850;-80
2021/01/30 09:22:46;;;;;;;66.47;34.65;;;;;;;0.25;76.20;98734.42;1752984;80;27569;-79
2021/01/30 09:25:48;;;;;;;67.80;35.85;;;;;;;0.20;76.10;98727.51;1728864;81;26274;-80
2021/01/30 09:28:26;;;;;;;65.08;34.27;;;;;;;0.20;76.24;98731.45;1763230;80;25913;-80
2021/01/30 09:31:06;;;;;;;64.40;35.45;;;;;;;0.21;76.39;98730.48;1763166;80;25396;-80
2021/01/30 09:33:48;;;;;;;68.12;36.35;;;;;;;0.25;76.55;98729.98;1732649;80;33222;-80
2021/01/30 09:36:24;;;;;;;75.37;40.05;;;;;;;0.27;76.28;98732.45;1756016;80;28485;-79
2021/01/30 09:38:59;;;;;;;71.95;39.38;;;;;;;0.28;76.34;98733.59;1741456;81;25953;-79
2021/01/30 09:41:29;;;;;;;83.95;42.20;;;;;;;0.30;76.33;98736.88;1764057;80;25828;-79
2021/01/30 09:44:07;;;;;;;85.87;42.73;;;;;;;0.33;76.41;98737.87;1717528;80;25773;-79
2021/01/30 09:46:42;;;;;;;73.30;38.35;;;;;;;0.38;76.54;98747.91;1751687;80;25385;-79
2021/01/30 09:49:21;;;;;;;74.97;41.80;;;;;;;0.40;76.48;98744.12;1719797;81;28530;-79
2021/01/30 09:51:53;;;;;;;78.05;44.03;;;;;;;0.40;76.47;98753.34;1736672;81;25855;-79
2021/01/30 09:54:24;;;;;;;66.28;40.00;;;;;;;0.44;76.56;98752.49;1677908;81;25761;-79
2021/01/30 09:57:01;;;;;;;81.28;41.90;;;;;;;0.45;76.42;98760.73;1718727;81;26071;-79
2021/01/30 09:59:30;;;;;;;119.50;60.65;;;;;;;0.41;76.46;98759.40;1719201;81;25993;-79
2021/01/30 10:02:21;;;;;;;73.33;40.97;;;;;;;0.44;76.68;98756.45;1742152;81;27525;-79
2021/01/30 10:05:11;;;;;;;83.20;41.65;;;;;;;0.44;76.68;98757.77;1715305;81;25853;-80
2021/01/30 10:07:40;;;;;;;62.40;34.55;;;;;;;0.46;76.78;98761.88;1743497;81;25857;-79
2021/01/30 10:10:28;;;;;;;36.10;22.77;;;;;;;0.44;76.62;98759.08;1694444;82;25925;-80
2021/01/30 10:12:58;;;;;;;34.50;19.87;;;;;;;0.38;76.44;98746.59;1738368;81;26129;-80
2021/01/30 10:15:29;;;;;;;;;;;;;;;0.25;76.68;98749.73;1721589;81;27546;-80
2021/01/30 10:18:02;;;;;;;;;;;;;;;0.19;76.86;98756.98;1669884;82;26631;-80
2021/01/30 10:20:44;;;;;;;22.48;12.45;;;;;;;0.16;77.16;98756.48;1731095;81;25686;-79
2021/01/30 10:23:39;;;;;;;34.50;20.27;;;;;;;0.11;77.21;98760.91;1745339;80;26173;-78
2021/01/30 10:26:18;;;;;;;38.60;21.85;;;;;;;0.06;77.26;98756.66;1722827;82;25835;-78
2021/01/30 10:28:57;;;;;;;34.08;18.67;;;;;;;0.08;77.65;98759.13;1725202;82;27353;-77
2021/01/30 10:31:38;;;;;;;32.63;20.52;;;;;;;0.14;77.62;98759.28;1721542;82;26412;-78
2021/01/30 10:34:20;;;;;;;30.52;19.57;;;;;;;0.12;77.68;98763.89;1693929;82;25892;-79
2021/01/30 10:37:20;;;;;;;32.30;20.02;;;;;;;0.09;77.60;98769.96;1698647;82;26287;-78
2021/01/30 10:39:53;;;;;;;32.80;18.70;;;;;;;0.08;77.83;98769.65;1696689;82;25945;-79
2021/01/30 10:42:26;;;;;;;35.83;21.12;;;;;;;0.08;77.90;98769.65;1715208;82;27821;-78
2021/01/30 10:45:05;;;;;;;37.10;20.95;;;;;;;0.06;77.96;98770.31;1655448;82;25837;-78
2021/01/30 10:47:32;;;;;;;34.58;20.10;;;;;;;0.07;78.12;98761.41;1702650;81;25824;-77
2021/01/30 10:50:22;;;;;;;36.38;21.70;;;;;;;0.09;78.23;98760.75;1708277;82;25752;-77
2021/01/30 10:52:50;;;;;;;37.40;21.40;;;;;;;0.10;78.22;98759.29;1736263;81;26650;-79
2021/01/30 10:55:36;;;;;;;38.38;23.38;;;;;;;0.11;78.28;98765.38;1683541;82;27535;-80
2021/01/30 10:58:19;;;;;;;38.10;20.85;;;;;;;0.13;78.52;98770.78;1731314;81;25779;-80
2021/01/30 11:01:13;;;;;;;43.05;23.22;;;;;;;0.21;78.56;98769.49;1711519;81;25800;-79
2021/01/30 11:03:52;;;;;;;40.70;23.05;;;;;;;0.20;78.32;98777.53;1743710;81;25778;-79
2021/01/30 11:06:39;;;;;;;40.10;23.47;;;;;;;0.14;78.53;98769.81;1714450;82;25800;-80
2021/01/30 11:09:17;;;;;;;44.48;23.45;;;;;;;0.17;78.57;98780.52;1681049;84;28452;-80
2021/01/30 11:11:46;;;;;;;46.50;24.75;;;;;;;0.17;78.72;98777.88;1744892;81;25828;-79
2021/01/30 11:14:31;;;;;;;50.30;25.92;;;;;;;0.16;78.44;98781.48;1674008;84;26501;-79
2021/01/30 11:17:03;;;;;;;50.63;27.30;;;;;;;0.13;78.50;98787.09;1703564;81;25810;-80
2021/01/30 11:19:38;;;;;;;51.90;27.85;;;;;;;0.11;78.52;98783.29;1673706;84;26347;-80
2021/01/30 11:22:21;;;;;;;50.30;27.70;;;;;;;0.10;78.42;98790.88;1747895;81;27347;-80
2021/01/30 11:25:13;;;;;;;38.15;19.20;;;;;;;0.16;78.59;98782.80;1826926;78;25712;-81
2021/01/30 11:27:47;;;;;;;51.18;26.90;;;;;;;0.09;78.58;98785.75;1770639;79;25798;-81
2021/01/30 11:30:28;;;;;;;54.20;28.75;;;;;;;0.06;78.69;98794.83;1744056;79;26579;-81
2021/01/30 11:33:06;;;;;;;53.48;27.82;;;;;;;0.06;78.93;98792.20;1783370;79;25720;-81
2021/01/30 11:35:38;;;;;;;56.30;28.67;;;;;;;0.08;79.15;98792.02;1788468;79;25780;-81
2021/01/30 11:38:14;;;;;;;51.42;26.12;;;;;;;0.09;79.14;98794.48;1753330;79;25786;-81
2021/01/30 11:40:43;;;;;;;50.78;25.72;;;;;;;0.12;79.00;98795.48;1759081;79;25934;-80
2021/01/30 11:43:13;;;;;;;50.65;26.10;;;;;;;0.12;79.16;98799.92;1783972;79;27527;-81
2021/01/30 11:45:41;;;;;;;52.13;25.70;;;;;;;0.13;79.07;98800.26;1712314;79;26242;-81
2021/01/30 11:48:09;;;;;;;47.75;25.12;;;;;;;0.16;79.04;98800.74;1692000;82;25866;-81
2021/01/30 11:50:37;;;;;;;52.00;26.27;;;;;;;0.18;79.03;98805.84;1711892;82;25981;-81
2021/01/30 11:53:08;;;;;;;51.68;27.87;;;;;;;0.27;79.43;98806.17;1743437;81;25806;-81
2021/01/30 11:55:44;;;;;;;52.05;25.92;;;;;;;0.42;79.17;98814.56;1829601;77;26336;-81
2021/01/30 11:58:12;;;;;;;48.95;25.48;;;;;;;0.33;78.97;98814.72;1776445;78;26051;-80
2021/01/30 12:00:39;;;;;;;54.05;28.47;;;;;;;0.32;79.09;98811.77;1781031;78;28353;-81
2021/01/30 12:03:13;;;;;;;54.33;27.75;;;;;;;0.29;79.10;98810.77;1804892;78;25410;-81
2021/01/30 12:05:40;;;;;;;50.60;26.85;;;;;;;0.31;79.17;98807.48;1788009;78;26241;-80
2021/01/30 12:08:07;;;;;;;49.35;25.88;;;;;;;0.26;78.93;98803.19;1750604;78;25661;-81